createdAt,value
2019-04-20T00:01:19.721Z,15.03
2019-04-20T00:03:46.737Z,15.15
2019-04-20T00:06:15.343Z,14.90
2019-04-20T00:08:44.692Z,15.60
2019-04-20T00:11:20.993Z,15.75
2019-04-20T00:13:52.936Z,15.05
2019-04-20T00:16:14.812Z,15.03
2019-04-20T00:18:48.847Z,16.27
2019-04-20T00:21:33.934Z,15.10
2019-04-20T00:24:10.298Z,15.05
2019-04-20T00:27:04.962Z,16.00
2019-04-20T00:29:21.326Z,15.93
2019-04-20T00:31:49.195Z,16.02
2019-04-20T00:34:14.101Z,16.25
2019-04-20T00:36:36.888Z,14.83
2019-04-20T00:39:10.875Z,16.57
2019-04-20T00:41:43.793Z,15.35
2019-04-20T00:44:13.252Z,15.90
2019-04-20T00:46:53.172Z,16.32
2019-04-20T00:49:27.555Z,15.15
2019-04-20T00:52:00.526Z,15.95
2019-04-20T00:54:09.555Z,15.53
2019-04-20T00:56:39.283Z,15.98
2019-04-20T01:01:52.314Z,14.75
2019-04-20T01:04:25.412Z,14.93
2019-04-20T01:06:53.966Z,15.60
2019-04-20T01:09:28.941Z,15.43
2019-04-20T01:11:58.477Z,14.50
2019-04-20T01:14:38.043Z,15.83
2019-04-20T01:17:05.780Z,15.40
2019-04-20T01:19:27.532Z,15.23
2019-04-20T01:22:02.355Z,15.15
2019-04-20T01:24:31.379Z,14.78
2019-04-20T01:27:00.799Z,15.23
2019-04-20T01:29:35.588Z,15.95
2019-04-20T01:32:12.485Z,14.68
2019-04-20T01:34:41.822Z,15.85
2019-04-20T01:37:14.826Z,14.70
2019-04-20T01:39:35.291Z,15.80
2019-04-20T01:41:58.204Z,15.20
2019-04-20T01:44:35.381Z,14.83
2019-04-20T01:47:00.060Z,14.00
2019-04-20T01:49:31.840Z,14.78
2019-04-20T01:52:07.346Z,15.20
2019-04-20T01:54:48.182Z,15.28
2019-04-20T01:57:12.797Z,14.43
2019-04-20T01:59:51.545Z,15.10
2019-04-20T02:02:20.859Z,14.87
2019-04-20T02:04:52.221Z,15.48
2019-04-20T02:07:28.460Z,16.10
2019-04-20T02:09:56.065Z,15.55
2019-04-20T02:12:25.347Z,32.48
2019-04-20T02:14:55.640Z,19.25
2019-04-20T02:17:30.064Z,16.70
2019-04-20T02:20:10.423Z,16.12
2019-04-20T02:22:37.306Z,15.98
2019-04-20T02:24:51.038Z,15.25
2019-04-20T02:27:28.961Z,15.10
2019-04-20T02:30:14.219Z,14.90
2019-04-20T02:32:59.262Z,15.05
2019-04-20T02:35:30.880Z,14.68
2019-04-20T02:45:33.337Z,14.47
2019-04-20T02:50:36.161Z,14.65
2019-04-20T02:53:05.133Z,14.78
2019-04-20T02:55:38.132Z,14.35
2019-04-20T02:58:01.943Z,15.00
2019-04-20T03:00:24.005Z,14.33
2019-04-20T03:02:42.891Z,14.43
2019-04-20T03:05:12.267Z,14.45
2019-04-20T03:07:54.396Z,14.38
2019-04-20T03:10:25.075Z,14.13
2019-04-20T03:12:50.681Z,14.28
2019-04-20T03:15:22.163Z,14.95
2019-04-20T03:17:51.092Z,14.63
2019-04-20T03:20:24.175Z,14.58
2019-04-20T03:23:11.172Z,13.68
2019-04-20T03:25:45.540Z,14.45
2019-04-20T03:28:10.547Z,14.95
2019-04-20T03:31:20.551Z,14.40
2019-04-20T03:33:44.947Z,14.00
2019-04-20T03:36:06.103Z,14.93
2019-04-20T03:38:23.127Z,15.30
2019-04-20T03:40:45.324Z,14.33
2019-04-20T03:43:02.651Z,14.68
2019-04-20T03:45:39.440Z,13.90
2019-04-20T03:48:14.342Z,13.25
2019-04-20T03:50:54.604Z,14.58
2019-04-20T03:53:25.236Z,14.15
2019-04-20T03:55:49.158Z,14.87
2019-04-20T03:58:37.624Z,14.75
2019-04-20T04:01:32.569Z,14.25
2019-04-20T04:03:59.191Z,14.87
2019-04-20T04:06:16.081Z,13.93
2019-04-20T04:08:39.418Z,14.35
2019-04-20T04:11:21.818Z,16.77
2019-04-20T04:13:35.557Z,13.72
2019-04-20T04:16:08.684Z,17.17
2019-04-20T04:18:40.292Z,18.27
2019-04-20T04:21:09.883Z,16.48
2019-04-20T04:23:49.073Z,18.77
2019-04-20T04:26:24.693Z,21.27
2019-04-20T04:28:47.506Z,15.25
2019-04-20T04:31:25.993Z,15.72
2019-04-20T04:36:21.136Z,15.20
2019-04-20T04:38:57.089Z,13.95
2019-04-20T04:41:28.181Z,16.35
2019-04-20T04:43:53.340Z,16.35
2019-04-20T04:46:07.953Z,15.75
2019-04-20T04:48:41.164Z,18.10
2019-04-20T04:51:13.955Z,19.80
2019-04-20T04:53:47.783Z,17.62
2019-04-20T04:56:11.637Z,19.90
2019-04-20T04:58:38.377Z,18.92
2019-04-20T05:01:12.683Z,18.15
2019-04-20T05:04:03.275Z,18.35
2019-04-20T05:06:25.269Z,19.75
2019-04-20T05:08:45.405Z,20.05
2019-04-20T05:11:09.430Z,20.45
2019-04-20T05:13:46.768Z,22.55
2019-04-20T05:16:26.031Z,22.07
2019-04-20T05:19:10.460Z,24.57
2019-04-20T05:21:30.214Z,23.22
2019-04-20T05:24:04.705Z,23.45
2019-04-20T05:26:37.520Z,23.52
2019-04-20T05:28:59.116Z,25.30
2019-04-20T05:31:24.469Z,23.60
2019-04-20T05:34:15.639Z,22.95
2019-04-20T05:36:41.587Z,23.25
2019-04-20T05:39:17.194Z,22.75
2019-04-20T05:41:39.055Z,22.17
2019-04-20T05:44:11.524Z,23.27
2019-04-20T05:46:42.434Z,22.55
2019-04-20T05:49:19.170Z,23.25
2019-04-20T05:51:44.369Z,24.47
2019-04-20T05:54:17.937Z,23.12
2019-04-20T05:56:45.868Z,24.95
2019-04-20T05:59:11.167Z,24.27
2019-04-20T06:01:53.308Z,24.45
2019-04-20T06:04:18.233Z,24.50
2019-04-20T06:06:49.645Z,24.85
2019-04-20T06:09:16.578Z,26.77
2019-04-20T06:11:57.524Z,26.12
2019-04-20T06:14:22.187Z,26.25
2019-04-20T06:17:04.768Z,25.57
2019-04-20T06:19:38.414Z,25.60
2019-04-20T06:22:23.124Z,23.83
2019-04-20T06:24:59.154Z,23.55
2019-04-20T06:27:17.438Z,24.75
2019-04-20T06:29:49.780Z,24.80
2019-04-20T06:32:21.496Z,23.90
2019-04-20T06:34:42.545Z,22.67
2019-04-20T06:37:21.318Z,25.62
2019-04-20T06:39:49.303Z,23.75
2019-04-20T06:42:34.286Z,23.47
2019-04-20T06:44:46.349Z,22.55
2019-04-20T06:47:24.630Z,21.15
2019-04-20T06:49:52.992Z,21.33
2019-04-20T06:52:34.977Z,20.48
2019-04-20T06:55:03.466Z,18.27
2019-04-20T06:57:34.635Z,18.40
2019-04-20T07:00:07.408Z,17.62
2019-04-20T07:05:07.015Z,18.30
2019-04-20T07:07:35.745Z,17.80
2019-04-20T07:10:13.331Z,18.07
2019-04-20T07:12:35.597Z,19.70
2019-04-20T07:14:55.485Z,19.10
2019-04-20T07:17:46.011Z,19.57
2019-04-20T07:20:14.579Z,20.92
2019-04-20T07:22:46.213Z,21.62
2019-04-20T07:25:13.954Z,27.48
2019-04-20T07:27:48.995Z,20.70
2019-04-20T07:30:29.609Z,22.25
2019-04-20T07:32:52.701Z,23.57
2019-04-20T07:35:17.404Z,25.00
2019-04-20T07:38:10.006Z,22.93
2019-04-20T07:40:34.747Z,21.90
2019-04-20T07:42:53.856Z,21.42
2019-04-20T07:45:28.292Z,20.35
2019-04-20T07:48:01.773Z,20.40
2019-04-20T07:50:12.904Z,17.02
2019-04-20T07:52:38.717Z,16.23
2019-04-20T07:55:33.577Z,14.13
2019-04-20T07:57:41.954Z,13.88
2019-04-20T08:00:26.093Z,12.18
2019-04-20T08:02:57.259Z,10.95
2019-04-20T08:05:19.283Z,7.83
2019-04-20T08:07:46.301Z,7.40
2019-04-20T08:10:14.678Z,6.22
2019-04-20T08:13:00.615Z,4.95
2019-04-20T08:15:42.742Z,6.28
2019-04-20T08:18:02.437Z,9.35
2019-04-20T08:20:33.106Z,9.10
2019-04-20T08:23:04.990Z,9.10
2019-04-20T08:25:27.556Z,9.43
2019-04-20T08:27:57.114Z,9.75
2019-04-20T08:33:33.651Z,6.75
2019-04-20T08:36:04.686Z,6.10
2019-04-20T08:40:59.628Z,8.48
2019-04-20T08:43:42.651Z,8.88
2019-04-20T08:46:05.632Z,8.58
2019-04-20T08:48:32.893Z,8.03
2019-04-20T08:51:06.078Z,5.85
2019-04-20T08:53:36.885Z,5.72
2019-04-20T08:55:57.010Z,5.80
2019-04-20T08:58:13.881Z,5.58
2019-04-20T09:00:50.142Z,4.53
2019-04-20T09:03:19.863Z,4.95
2019-04-20T09:05:54.722Z,5.08
2019-04-20T09:08:21.315Z,5.47
2019-04-20T09:11:01.488Z,5.80
2019-04-20T09:13:24.528Z,5.58
2019-04-20T09:15:44.721Z,5.45
2019-04-20T09:18:26.026Z,5.62
2019-04-20T09:20:58.880Z,5.87
2019-04-20T09:23:40.865Z,5.05
2019-04-20T09:28:38.252Z,6.03
2019-04-20T09:31:22.615Z,6.37
2019-04-20T09:34:07.653Z,5.87
2019-04-20T09:36:46.179Z,5.70
2019-04-20T09:39:27.172Z,5.83
2019-04-20T09:42:00.404Z,6.15
2019-04-20T09:44:26.795Z,6.50
2019-04-20T09:46:56.348Z,6.70
2019-04-20T09:49:37.502Z,6.35
2019-04-20T09:52:06.534Z,7.08
2019-04-20T09:54:41.593Z,7.00
2019-04-20T09:57:14.958Z,6.67
2019-04-20T09:59:44.804Z,6.53
2019-04-20T10:02:02.125Z,6.40
2019-04-20T10:04:25.729Z,6.50
2019-04-20T10:06:55.263Z,5.67
2019-04-20T10:14:22.608Z,5.30
2019-04-20T10:19:24.889Z,4.30
2019-04-20T10:21:50.750Z,3.90
2019-04-20T10:24:19.221Z,4.05
2019-04-20T10:26:48.265Z,3.50
2019-04-20T10:29:17.455Z,3.60
2019-04-20T10:31:52.693Z,3.77
2019-04-20T10:34:18.020Z,3.72
2019-04-20T10:36:48.542Z,4.20
2019-04-20T10:39:18.691Z,3.90
2019-04-20T10:41:52.583Z,4.40
2019-04-20T10:44:18.620Z,3.80
2019-04-20T10:46:47.290Z,3.80
2019-04-20T10:49:15.784Z,4.45
2019-04-20T10:51:44.626Z,4.37
2019-04-20T10:54:14.220Z,4.22
2019-04-20T10:56:43.548Z,4.20
2019-04-20T10:59:13.811Z,4.05
2019-04-20T11:01:43.386Z,3.58
2019-04-20T11:04:12.536Z,4.12
2019-04-20T11:06:41.124Z,4.30
2019-04-20T11:09:10.916Z,3.90
2019-04-20T11:11:40.600Z,4.00
2019-04-20T11:14:18.982Z,3.58
2019-04-20T11:16:42.466Z,3.60
2019-04-20T11:19:11.635Z,3.30
2019-04-20T11:21:40.810Z,3.72
2019-04-20T11:24:10.065Z,3.40
2019-04-20T11:31:42.052Z,3.67
2019-04-20T11:34:08.028Z,3.77
2019-04-20T11:36:37.105Z,3.65
2019-04-20T11:39:11.166Z,3.47
2019-04-20T11:41:41.359Z,3.22
2019-04-20T11:44:11.608Z,3.47
2019-04-20T11:46:40.734Z,4.10
2019-04-20T11:49:09.795Z,5.62
2019-04-20T11:51:39.410Z,4.00
2019-04-20T11:54:08.366Z,3.55
2019-04-20T11:56:40.739Z,4.25
2019-04-20T11:59:07.571Z,4.25
2019-04-20T12:01:48.993Z,3.93
2019-04-20T12:04:24.868Z,3.95
2019-04-20T12:06:41.156Z,3.85
2019-04-20T12:11:53.695Z,4.15
2019-04-20T12:14:10.412Z,4.00
2019-04-20T12:16:39.589Z,3.80
2019-04-20T12:19:08.580Z,3.80
2019-04-20T12:21:37.203Z,4.17
2019-04-20T12:24:06.770Z,4.17
2019-04-20T12:26:36.533Z,4.20
2019-04-20T12:29:05.711Z,4.37
2019-04-20T12:34:02.376Z,3.60
2019-04-20T12:36:30.956Z,3.25
2019-04-20T12:38:59.398Z,3.45
2019-04-20T12:41:37.429Z,3.57
2019-04-20T12:43:59.437Z,3.87
2019-04-20T12:46:28.165Z,3.92
2019-04-20T12:48:57.706Z,3.85
2019-04-20T12:51:33.808Z,4.22
2019-04-20T12:53:58.364Z,4.35
2019-04-20T12:56:27.034Z,4.25
2019-04-20T12:58:55.857Z,4.25
2019-04-20T13:01:25.809Z,5.08
2019-04-20T13:03:55.283Z,4.37
2019-04-20T13:06:24.197Z,4.10
2019-04-20T13:08:56.862Z,3.60
2019-04-20T13:11:24.853Z,3.60
2019-04-20T13:14:06.683Z,3.58
2019-04-20T13:16:36.793Z,4.53
2019-04-20T13:19:05.656Z,3.15
2019-04-20T13:21:34.875Z,3.45
2019-04-20T13:26:33.192Z,4.30
2019-04-20T13:29:02.383Z,3.47
2019-04-20T13:31:31.620Z,3.42
2019-04-20T13:34:01.513Z,3.30
2019-04-20T13:36:30.400Z,3.30
2019-04-20T13:38:59.677Z,3.60
2019-04-20T13:41:29.628Z,4.00
2019-04-20T13:44:01.225Z,3.50
2019-04-20T13:46:29.228Z,3.50
2019-04-20T13:48:57.895Z,3.30
2019-04-20T13:51:26.618Z,4.00
2019-04-20T13:53:55.314Z,3.50
2019-04-20T13:56:25.873Z,3.92
2019-04-20T13:58:59.115Z,3.58
2019-04-20T14:01:35.018Z,3.72
2019-04-20T14:04:05.382Z,3.90
2019-04-20T14:06:35.264Z,3.10
2019-04-20T14:09:07.430Z,3.70
2019-04-20T14:11:36.668Z,3.60
2019-04-20T14:14:08.123Z,3.20
2019-04-20T14:16:36.882Z,3.90
2019-04-20T14:19:05.556Z,3.92
2019-04-20T14:21:34.306Z,3.75
2019-04-20T14:24:04.173Z,3.87
2019-04-20T14:26:35.719Z,4.22
2019-04-20T14:29:05.017Z,4.03
2019-04-20T14:31:33.969Z,3.83
2019-04-20T14:34:04.753Z,3.80
2019-04-20T14:36:34.870Z,3.47
2019-04-20T14:39:06.551Z,3.60
2019-04-20T14:41:38.032Z,4.00
2019-04-20T14:44:07.940Z,3.85
2019-04-20T14:46:37.881Z,3.65
2019-04-20T14:49:07.046Z,3.70
2019-04-20T14:51:35.778Z,4.00
2019-04-20T14:54:05.539Z,3.90
2019-04-20T14:56:35.688Z,3.90
2019-04-20T14:59:07.550Z,3.67
2019-04-20T15:01:38.706Z,3.27
2019-04-20T15:04:14.619Z,3.10
2019-04-20T15:06:39.786Z,3.60
2019-04-20T15:09:08.859Z,3.52
2019-04-20T15:11:40.746Z,3.62
2019-04-20T15:14:08.898Z,3.70
2019-04-20T15:16:38.488Z,3.50
2019-04-20T15:19:09.604Z,3.50
2019-04-20T15:21:40.040Z,3.72
2019-04-20T15:24:09.390Z,3.98
2019-04-20T15:26:38.518Z,3.62
2019-04-20T15:29:08.397Z,3.40
2019-04-20T15:31:38.318Z,3.80
2019-04-20T15:34:07.109Z,3.70
2019-04-20T15:36:36.112Z,3.10
2019-04-20T15:39:07.295Z,3.47
2019-04-20T15:41:36.031Z,3.70
2019-04-20T15:44:04.921Z,4.00
2019-04-20T15:46:34.746Z,3.70
2019-04-20T15:49:04.078Z,3.50
2019-04-20T15:51:34.168Z,3.00
2019-04-20T15:54:02.975Z,3.95
2019-04-20T15:56:31.602Z,2.90
2019-04-20T15:59:00.362Z,3.08
2019-04-20T16:01:30.516Z,3.58
2019-04-20T16:04:03.622Z,3.30
2019-04-20T16:06:32.873Z,3.17
2019-04-20T16:09:02.211Z,3.30
2019-04-20T16:14:01.188Z,3.58
2019-04-20T16:16:30.039Z,4.00
2019-04-20T16:18:59.118Z,3.02
2019-04-20T16:21:31.236Z,3.37
2019-04-20T16:24:00.996Z,3.55
2019-04-20T16:26:35.572Z,3.67
2019-04-20T16:29:06.003Z,4.30
2019-04-20T16:31:34.650Z,5.65
2019-04-20T16:34:03.382Z,5.12
2019-04-20T16:36:32.535Z,4.80
2019-04-20T16:39:01.558Z,4.40
2019-04-20T16:41:30.689Z,5.58
2019-04-20T16:43:59.494Z,7.37
2019-04-20T16:46:28.254Z,4.85
2019-04-20T16:48:57.065Z,4.67
2019-04-20T16:51:25.559Z,5.40
2019-04-20T16:53:54.475Z,4.30
2019-04-20T16:56:24.368Z,3.75
2019-04-20T16:58:54.573Z,4.47
2019-04-20T17:01:23.459Z,4.20
2019-04-20T17:04:01.811Z,4.90
2019-04-20T17:06:24.156Z,6.10
2019-04-20T17:08:52.926Z,5.17
2019-04-20T17:11:21.747Z,5.30
2019-04-20T17:13:54.738Z,6.20
2019-04-20T17:16:21.875Z,6.55
2019-04-20T17:18:51.873Z,6.58
2019-04-20T17:21:25.269Z,7.50
2019-04-20T17:23:51.305Z,6.85
2019-04-20T17:26:23.016Z,6.83
2019-04-20T17:29:08.327Z,9.45
2019-04-20T17:31:39.685Z,8.93
2019-04-20T17:34:27.207Z,8.13
2019-04-20T17:36:40.396Z,6.87
2019-04-20T17:39:13.447Z,5.37
2019-04-20T17:41:55.799Z,5.65
2019-04-20T17:44:29.078Z,5.50
2019-04-20T17:46:52.091Z,4.90
2019-04-20T17:49:26.924Z,5.47
2019-04-20T17:52:05.165Z,6.50
2019-04-20T17:54:29.359Z,7.00
2019-04-20T17:56:58.243Z,6.87
2019-04-20T17:59:28.270Z,6.87
2019-04-20T18:02:19.183Z,7.35
2019-04-20T18:05:00.982Z,7.50
2019-04-20T18:07:31.517Z,7.80
2019-04-20T18:09:59.024Z,7.47
2019-04-20T18:12:14.083Z,7.78
2019-04-20T18:14:53.529Z,8.30
2019-04-20T18:17:32.639Z,8.00
2019-04-20T18:19:56.875Z,8.60
2019-04-20T18:22:27.775Z,9.83
2019-04-20T18:25:22.323Z,9.93
2019-04-20T18:27:41.374Z,9.78
2019-04-20T18:30:16.057Z,9.55
2019-04-20T18:32:33.697Z,9.30
2019-04-20T18:35:08.354Z,9.08
2019-04-20T18:37:36.570Z,8.98
2019-04-20T18:40:11.102Z,9.15
2019-04-20T18:42:43.201Z,10.80
2019-04-20T18:45:27.928Z,14.13
2019-04-20T18:47:56.321Z,14.78
2019-04-20T18:50:19.459Z,15.63
2019-04-20T18:52:40.103Z,13.18
2019-04-20T18:55:15.952Z,16.32
2019-04-20T18:57:39.749Z,16.25
2019-04-20T19:00:18.081Z,15.65
2019-04-20T19:02:44.541Z,15.20
2019-04-20T19:05:09.628Z,14.00
2019-04-20T19:07:42.089Z,14.10
2019-04-20T19:10:16.598Z,13.55
2019-04-20T19:12:47.782Z,13.75
2019-04-20T19:15:37.165Z,13.80
2019-04-20T19:17:58.999Z,14.28
2019-04-20T19:20:22.110Z,13.05
2019-04-20T19:22:50.738Z,14.00
2019-04-20T19:25:27.415Z,13.73
2019-04-20T19:27:54.695Z,12.65
2019-04-20T19:30:31.588Z,13.45
2019-04-20T19:33:09.128Z,13.43
2019-04-20T19:35:33.602Z,13.43
2019-04-20T19:38:03.244Z,13.10
2019-04-20T19:40:34.755Z,14.03
2019-04-20T19:43:02.546Z,14.18
2019-04-20T19:46:08.531Z,13.85
2019-04-20T19:48:09.490Z,14.60
2019-04-20T19:50:53.542Z,14.18
2019-04-20T19:53:16.511Z,14.30
2019-04-20T19:55:40.035Z,15.30
2019-04-20T19:58:09.741Z,15.90
2019-04-20T20:00:51.373Z,14.63
2019-04-20T20:03:19.448Z,14.95
2019-04-20T20:05:51.895Z,14.78
2019-04-20T20:08:23.713Z,13.62
2019-04-20T20:10:50.476Z,13.35
2019-04-20T20:13:20.393Z,12.23
2019-04-20T20:15:52.638Z,11.38
2019-04-20T20:18:35.437Z,13.75
2019-04-20T20:21:06.156Z,14.60
2019-04-20T20:23:20.326Z,10.40
2019-04-20T20:25:51.129Z,12.85
2019-04-20T20:28:31.864Z,10.38
2019-04-20T20:31:01.463Z,10.85
2019-04-20T20:33:36.302Z,9.83
2019-04-20T20:36:01.497Z,11.53
2019-04-20T20:38:28.855Z,11.57
2019-04-20T20:40:57.888Z,11.63
2019-04-20T20:43:39.809Z,11.73
2019-04-20T20:46:05.303Z,10.85
2019-04-20T20:48:35.643Z,10.55
2019-04-20T20:51:12.179Z,10.03
2019-04-20T20:53:37.573Z,11.78
2019-04-20T20:56:05.334Z,11.22
2019-04-20T20:58:36.121Z,11.53
2019-04-20T21:01:03.638Z,13.00
2019-04-20T21:03:33.608Z,12.73
2019-04-20T21:05:53.924Z,11.33
2019-04-20T21:08:23.811Z,12.23
2019-04-20T21:10:52.729Z,12.58
2019-04-20T21:13:21.446Z,14.25
2019-04-20T21:15:56.053Z,14.47
2019-04-20T21:18:37.793Z,14.07
2019-04-20T21:21:06.513Z,13.95
2019-04-20T21:23:34.103Z,13.95
2019-04-20T21:25:56.971Z,13.43
2019-04-20T21:28:26.892Z,14.15
2019-04-20T21:30:57.808Z,14.15
2019-04-20T21:33:30.264Z,14.05
2019-04-20T21:35:56.748Z,15.15
2019-04-20T21:38:30.534Z,15.15
2019-04-20T21:41:04.462Z,14.15
2019-04-20T21:43:29.976Z,14.60
2019-04-20T21:46:02.872Z,14.58
2019-04-20T21:48:40.710Z,15.32
2019-04-20T21:51:13.368Z,15.68
2019-04-20T21:53:31.893Z,15.40
2019-04-20T21:55:57.554Z,14.95
2019-04-20T21:58:32.428Z,15.48
2019-04-20T22:01:09.232Z,15.90
2019-04-20T22:03:27.780Z,14.28
2019-04-20T22:06:02.445Z,15.65
2019-04-20T22:08:32.708Z,16.62
2019-04-20T22:11:01.833Z,15.83
2019-04-20T22:13:36.563Z,17.12
2019-04-20T22:16:05.256Z,15.23
2019-04-20T22:18:45.522Z,15.43
2019-04-20T22:21:11.153Z,15.18
2019-04-20T22:23:47.541Z,16.07
2019-04-20T22:26:12.054Z,16.17
2019-04-20T22:28:32.150Z,15.38
2019-04-20T22:31:02.118Z,15.23
2019-04-20T22:33:41.208Z,15.65
2019-04-20T22:36:10.811Z,15.90
2019-04-20T22:38:59.824Z,15.45
2019-04-20T22:41:27.895Z,15.95
2019-04-20T22:43:56.684Z,16.32
2019-04-20T22:46:31.804Z,16.83
2019-04-20T22:49:17.675Z,16.27
2019-04-20T22:51:39.867Z,15.63
2019-04-20T22:54:12.960Z,15.63
2019-04-20T22:56:42.382Z,15.95
2019-04-20T22:59:04.214Z,15.08
2019-04-20T23:01:33.643Z,16.05
2019-04-20T23:03:56.915Z,15.58
2019-04-20T23:06:33.432Z,17.27
2019-04-20T23:08:59.623Z,16.05
2019-04-20T23:11:29.086Z,16.23
2019-04-20T23:13:56.235Z,15.55
2019-04-20T23:16:27.904Z,16.17
2019-04-20T23:18:56.163Z,15.10
2019-04-20T23:21:25.852Z,15.32
2019-04-20T23:26:29.894Z,15.43
2019-04-20T23:28:57.562Z,15.98
2019-04-20T23:31:26.693Z,14.68
2019-04-20T23:33:55.992Z,16.02
2019-04-20T23:36:31.897Z,16.32
2019-04-20T23:38:59.214Z,16.48
2019-04-20T23:41:25.972Z,16.42
2019-04-20T23:44:04.594Z,15.63
2019-04-20T23:46:34.978Z,16.27
2019-04-20T23:49:07.502Z,15.45
2019-04-20T23:51:53.779Z,16.07
2019-04-20T23:54:12.549Z,15.78
2019-04-20T23:56:37.513Z,16.10
2019-04-20T23:59:06.488Z,16.02
